createdAt,value
2022-11-24T00:01:05.801Z,96.15
2022-11-24T00:03:34.300Z,95.45
2022-11-24T00:06:07.984Z,94.89
2022-11-24T00:08:35.508Z,95.31
2022-11-24T00:11:04.923Z,95.35
2022-11-24T00:13:34.618Z,95.76
2022-11-24T00:16:08.140Z,95.47
2022-11-24T00:18:35.694Z,95.32
2022-11-24T00:21:03.258Z,94.68
2022-11-24T00:23:32.109Z,94.70
2022-11-24T00:26:08.953Z,95.21
2022-11-24T00:28:37.363Z,95.05
2022-11-24T00:31:17.323Z,94.52
2022-11-24T00:33:45.685Z,94.48
2022-11-24T00:36:14.184Z,94.60
2022-11-24T00:38:43.513Z,95.32
2022-11-24T00:41:10.875Z,95.12
2022-11-24T00:43:38.407Z,94.46
2022-11-24T00:46:06.926Z,94.38
2022-11-24T00:48:34.804Z,94.97
2022-11-24T00:51:03.619Z,94.40
2022-11-24T00:53:31.446Z,94.78
2022-11-24T00:56:00.312Z,95.00
2022-11-24T00:58:28.407Z,94.81
2022-11-24T01:01:01.647Z,94.08
2022-11-24T01:03:29.309Z,94.45
2022-11-24T01:05:57.248Z,93.98
2022-11-24T01:08:24.731Z,94.33
2022-11-24T01:10:52.226Z,93.58
2022-11-24T01:13:21.081Z,94.28
2022-11-24T01:15:49.053Z,93.53
2022-11-24T01:18:17.037Z,93.61
2022-11-24T01:20:45.245Z,94.53
2022-11-24T01:23:12.847Z,93.42
2022-11-24T01:25:40.263Z,94.06
2022-11-24T01:28:07.824Z,93.25
2022-11-24T01:30:37.166Z,93.43
2022-11-24T01:33:05.268Z,93.02
2022-11-24T01:35:32.768Z,92.91
2022-11-24T01:38:00.184Z,93.40
2022-11-24T01:40:29.301Z,93.62
2022-11-24T01:42:57.553Z,93.29
2022-11-24T01:45:33.975Z,92.94
2022-11-24T01:48:06.442Z,93.13
2022-11-24T01:50:35.905Z,93.66
2022-11-24T01:53:05.373Z,93.67
2022-11-24T01:55:37.055Z,93.66
2022-11-24T01:58:07.920Z,93.34
2022-11-24T02:00:39.522Z,93.93
2022-11-24T02:03:11.163Z,93.71
2022-11-24T02:05:42.353Z,93.47
2022-11-24T02:08:16.027Z,94.07
2022-11-24T02:10:45.710Z,93.61
2022-11-24T02:13:15.029Z,93.21
2022-11-24T02:15:43.252Z,93.66
2022-11-24T02:18:12.517Z,93.18
2022-11-24T02:20:40.141Z,93.97
2022-11-24T02:23:15.874Z,93.80
2022-11-24T02:25:52.206Z,93.51
2022-11-24T02:28:23.406Z,93.40
2022-11-24T02:30:51.370Z,93.82
2022-11-24T02:33:21.690Z,93.02
2022-11-24T02:35:49.248Z,93.46
2022-11-24T02:38:17.254Z,93.25
2022-11-24T02:40:48.211Z,93.30
2022-11-24T02:43:20.305Z,93.06
2022-11-24T02:45:49.406Z,93.22
2022-11-24T02:48:17.229Z,93.45
2022-11-24T02:50:45.148Z,93.54
2022-11-24T02:53:12.846Z,93.28
2022-11-24T02:55:40.366Z,93.03
2022-11-24T02:58:08.548Z,93.46
2022-11-24T03:00:36.340Z,93.21
2022-11-24T03:03:05.425Z,93.12
2022-11-24T03:05:32.878Z,93.26
2022-11-24T03:08:00.280Z,93.22
2022-11-24T03:10:28.688Z,93.33
2022-11-24T03:12:56.369Z,93.57
2022-11-24T03:15:24.399Z,92.75
2022-11-24T03:17:54.872Z,93.48
2022-11-24T03:20:25.710Z,93.33
2022-11-24T03:22:53.274Z,92.58
2022-11-24T03:25:21.379Z,92.61
2022-11-24T03:27:48.780Z,93.38
2022-11-24T03:30:17.279Z,93.25
2022-11-24T03:32:45.358Z,92.68
2022-11-24T03:35:12.748Z,92.87
2022-11-24T03:37:44.577Z,92.92
2022-11-24T03:40:14.685Z,92.66
2022-11-24T03:42:44.861Z,93.30
2022-11-24T03:45:44.157Z,93.09
2022-11-24T03:48:07.538Z,93.52
2022-11-24T03:50:34.934Z,92.74
2022-11-24T03:53:03.841Z,93.61
2022-11-24T03:55:31.407Z,92.92
2022-11-24T03:57:59.000Z,93.32
2022-11-24T04:00:26.561Z,92.85
2022-11-24T04:02:54.378Z,93.56
2022-11-24T04:05:21.892Z,92.90
2022-11-24T04:07:49.297Z,93.43
2022-11-24T04:10:18.741Z,92.83
2022-11-24T04:12:46.585Z,93.03
2022-11-24T04:15:17.174Z,92.78
2022-11-24T04:17:46.047Z,92.72
2022-11-24T04:20:14.134Z,92.32
2022-11-24T04:22:42.322Z,92.60
2022-11-24T04:25:10.879Z,93.11
2022-11-24T04:27:39.794Z,92.23
2022-11-24T04:30:08.448Z,93.09
2022-11-24T04:32:35.934Z,92.57
2022-11-24T04:35:03.378Z,92.84
2022-11-24T04:37:31.834Z,91.89
2022-11-24T04:39:59.455Z,91.83
2022-11-24T04:42:27.291Z,91.96
2022-11-24T04:44:56.065Z,92.63
2022-11-24T04:47:25.205Z,92.33
2022-11-24T04:49:53.378Z,92.41
2022-11-24T04:52:22.719Z,91.92
2022-11-24T04:54:50.525Z,91.91
2022-11-24T04:57:20.393Z,92.63
2022-11-24T04:59:48.738Z,91.87
2022-11-24T05:02:17.999Z,92.12
2022-11-24T05:04:46.317Z,91.83
2022-11-24T05:07:18.331Z,91.89
2022-11-24T05:10:05.136Z,91.85
2022-11-24T05:12:32.627Z,91.83
2022-11-24T05:15:04.210Z,92.57
2022-11-24T05:17:36.742Z,91.75
2022-11-24T05:20:06.622Z,91.96
2022-11-24T05:22:34.281Z,92.40
2022-11-24T05:25:05.172Z,92.25
2022-11-24T05:27:34.492Z,91.96
2022-11-24T05:30:02.337Z,92.65
2022-11-24T05:32:31.891Z,92.40
2022-11-24T05:35:05.673Z,92.42
2022-11-24T05:37:34.975Z,91.72
2022-11-24T05:40:04.132Z,91.92
2022-11-24T05:42:46.699Z,92.13
2022-11-24T05:45:17.058Z,92.60
2022-11-24T05:47:44.678Z,92.29
2022-11-24T05:50:15.803Z,91.87
2022-11-24T05:52:43.431Z,91.77
2022-11-24T05:55:15.805Z,92.08
2022-11-24T05:57:45.012Z,91.29
2022-11-24T06:00:13.399Z,92.15
2022-11-24T06:02:41.292Z,91.99
2022-11-24T06:05:12.389Z,91.45
2022-11-24T06:07:43.460Z,91.38
2022-11-24T06:10:10.914Z,91.28
2022-11-24T06:12:39.926Z,91.07
2022-11-24T06:15:12.317Z,91.54
2022-11-24T06:17:41.693Z,91.66
2022-11-24T06:20:10.523Z,90.88
2022-11-24T06:22:38.313Z,91.53
2022-11-24T06:25:11.167Z,90.65
2022-11-24T06:27:42.033Z,91.26
2022-11-24T06:30:11.962Z,91.27
2022-11-24T06:32:41.657Z,91.14
2022-11-24T06:35:14.976Z,91.18
2022-11-24T06:37:45.847Z,90.69
2022-11-24T06:40:15.013Z,91.18
2022-11-24T06:42:43.241Z,91.25
2022-11-24T06:45:11.587Z,91.53
2022-11-24T06:47:38.871Z,90.82
2022-11-24T06:50:08.403Z,91.19
2022-11-24T06:52:35.798Z,90.64
2022-11-24T06:55:03.329Z,90.34
2022-11-24T06:57:32.618Z,90.47
2022-11-24T07:00:00.153Z,90.60
2022-11-24T07:02:27.599Z,90.94
2022-11-24T07:04:55.508Z,91.00
2022-11-24T07:07:22.857Z,90.71
2022-11-24T07:09:51.636Z,90.69
2022-11-24T07:12:19.061Z,90.45
2022-11-24T07:14:47.806Z,91.01
2022-11-24T07:17:15.045Z,90.38
2022-11-24T07:19:42.249Z,89.93
2022-11-24T07:22:09.981Z,90.80
2022-11-24T07:24:38.096Z,90.57
2022-11-24T07:27:08.343Z,90.01
2022-11-24T07:29:37.528Z,90.53
2022-11-24T07:32:06.470Z,89.69
2022-11-24T07:34:34.124Z,90.04
2022-11-24T07:37:02.013Z,90.50
2022-11-24T07:39:29.252Z,90.58
2022-11-24T07:41:57.526Z,90.17
2022-11-24T07:44:24.775Z,89.56
2022-11-24T07:46:53.142Z,90.42
2022-11-24T07:49:21.864Z,90.27
2022-11-24T07:51:49.859Z,90.31
2022-11-24T07:54:17.909Z,89.87
2022-11-24T07:56:47.757Z,89.28
2022-11-24T07:59:15.620Z,89.71
2022-11-24T08:01:42.982Z,90.02
2022-11-24T08:04:11.280Z,90.08
2022-11-24T08:06:44.681Z,89.72
2022-11-24T08:09:14.473Z,90.30
2022-11-24T08:11:41.711Z,89.96
2022-11-24T08:14:08.968Z,89.98
2022-11-24T08:16:36.404Z,89.33
2022-11-24T08:19:03.689Z,90.06
2022-11-24T08:21:31.068Z,89.90
2022-11-24T08:23:59.646Z,89.97
2022-11-24T08:26:27.269Z,90.16
2022-11-24T08:28:56.604Z,89.42
2022-11-24T08:31:26.218Z,89.98
2022-11-24T08:33:55.968Z,89.99
2022-11-24T08:36:23.209Z,89.91
2022-11-24T08:38:55.095Z,88.98
2022-11-24T08:41:25.363Z,89.74
2022-11-24T08:43:53.135Z,89.86
2022-11-24T08:46:21.313Z,89.57
2022-11-24T08:48:50.232Z,89.75
2022-11-24T08:51:20.839Z,89.22
2022-11-24T08:53:48.366Z,89.69
2022-11-24T08:56:15.645Z,89.36
2022-11-24T08:58:44.347Z,89.23
2022-11-24T09:01:13.416Z,89.61
2022-11-24T09:03:46.546Z,89.46
2022-11-24T09:06:18.361Z,89.07
2022-11-24T09:08:45.818Z,89.76
2022-11-24T09:11:15.264Z,89.46
2022-11-24T09:13:44.440Z,89.25
2022-11-24T09:16:13.873Z,89.76
2022-11-24T09:18:41.974Z,89.59
2022-11-24T09:21:10.671Z,89.28
2022-11-24T09:23:38.454Z,89.22
2022-11-24T09:26:07.233Z,88.91
2022-11-24T09:28:34.742Z,89.34
2022-11-24T09:31:04.481Z,89.41
2022-11-24T09:33:32.698Z,89.61
2022-11-24T09:36:01.405Z,88.81
2022-11-24T09:38:29.143Z,88.83
2022-11-24T09:41:05.951Z,89.06
2022-11-24T09:43:41.336Z,88.69
2022-11-24T09:46:18.465Z,88.69
2022-11-24T09:48:49.633Z,89.25
2022-11-24T09:51:19.575Z,89.21
2022-11-24T09:53:56.758Z,89.15
2022-11-24T09:56:28.956Z,88.58
2022-11-24T09:59:00.602Z,89.28
2022-11-24T10:01:31.829Z,88.79
2022-11-24T10:04:05.630Z,89.16
2022-11-24T10:06:40.303Z,88.94
2022-11-24T10:09:19.813Z,88.92
2022-11-24T10:11:58.625Z,88.95
2022-11-24T10:15:01.941Z,89.18
2022-11-24T10:17:49.886Z,88.98
2022-11-24T10:20:27.295Z,88.63
2022-11-24T10:23:08.646Z,88.89
2022-11-24T10:25:44.359Z,89.01
2022-11-24T10:28:15.409Z,88.33
2022-11-24T10:30:43.260Z,88.62
2022-11-24T10:33:18.773Z,89.18
2022-11-24T10:35:51.007Z,89.02
2022-11-24T10:38:33.894Z,88.57
2022-11-24T10:41:08.083Z,88.95
2022-11-24T10:43:35.293Z,88.43
2022-11-24T10:46:11.814Z,88.88
2022-11-24T10:48:46.522Z,88.45
2022-11-24T10:51:35.619Z,88.09
2022-11-24T10:54:11.539Z,88.30
2022-11-24T10:56:40.299Z,87.88
2022-11-24T10:59:31.100Z,88.23
2022-11-24T11:01:59.003Z,88.62
2022-11-24T11:04:30.170Z,88.74
2022-11-24T11:07:17.825Z,88.16
2022-11-24T11:09:47.489Z,88.58
2022-11-24T11:12:42.799Z,87.78
2022-11-24T11:15:28.516Z,87.84
2022-11-24T11:18:00.202Z,87.65
2022-11-24T11:20:32.075Z,88.48
2022-11-24T11:23:15.235Z,88.11
2022-11-24T11:25:46.498Z,87.52
2022-11-24T11:28:30.339Z,87.76
2022-11-24T11:34:06.133Z,87.90
2022-11-24T11:36:42.770Z,87.69
2022-11-24T11:39:23.162Z,88.42
2022-11-24T11:41:54.703Z,88.10
2022-11-24T11:44:32.795Z,87.85
2022-11-24T11:47:09.374Z,87.74
2022-11-24T11:49:39.444Z,87.87
2022-11-24T11:55:31.868Z,87.80
2022-11-24T11:58:13.673Z,87.42
2022-11-24T12:00:48.653Z,88.01
2022-11-24T12:03:41.315Z,87.77
2022-11-24T12:06:22.968Z,87.83
2022-11-24T12:09:19.781Z,88.33
2022-11-24T12:12:02.039Z,87.67
2022-11-24T12:14:39.641Z,87.47
2022-11-24T12:17:17.494Z,88.08
2022-11-24T12:20:03.865Z,87.67
2022-11-24T12:22:40.912Z,87.83
2022-11-24T12:25:23.415Z,87.45
2022-11-24T12:28:03.979Z,87.71
2022-11-24T12:30:40.693Z,88.09
2022-11-24T12:33:19.560Z,88.08
2022-11-24T12:35:52.314Z,87.47
2022-11-24T12:38:31.752Z,88.27
2022-11-24T12:41:40.581Z,88.10
2022-11-24T12:44:11.944Z,88.23
2022-11-24T12:46:49.922Z,87.92
2022-11-24T12:49:28.650Z,88.06
2022-11-24T12:52:02.504Z,87.88
2022-11-24T12:54:36.920Z,87.75
2022-11-24T12:57:12.672Z,88.24
2022-11-24T12:59:48.700Z,88.06
2022-11-24T13:02:25.110Z,87.91
2022-11-24T13:05:00.110Z,87.65
2022-11-24T13:07:40.156Z,87.86
2022-11-24T13:10:55.854Z,87.71
2022-11-24T13:13:23.510Z,87.91
2022-11-24T13:19:09.225Z,87.44
2022-11-24T13:22:01.611Z,87.52
2022-11-24T13:24:35.275Z,87.81
2022-11-24T13:27:28.257Z,87.82
2022-11-24T13:29:57.935Z,87.82
2022-11-24T13:32:47.815Z,87.88
2022-11-24T13:35:16.547Z,87.58
2022-11-24T13:37:51.660Z,87.76
2022-11-24T13:40:54.178Z,88.02
2022-11-24T13:43:33.284Z,88.20
2022-11-24T13:46:04.293Z,87.65
2022-11-24T13:49:00.346Z,87.54
2022-11-24T13:51:29.693Z,87.39
2022-11-24T13:54:00.109Z,87.94
2022-11-24T13:56:31.173Z,87.89
2022-11-24T13:59:15.810Z,87.96
2022-11-24T14:01:46.942Z,87.04
2022-11-24T14:04:35.280Z,87.75
2022-11-24T14:07:09.460Z,87.37
2022-11-24T14:09:43.697Z,87.55
2022-11-24T14:12:15.589Z,87.52
2022-11-24T14:14:44.572Z,87.42
2022-11-24T14:17:19.626Z,87.48
2022-11-24T14:19:48.522Z,87.42
2022-11-24T14:22:18.986Z,87.35
2022-11-24T14:24:52.628Z,87.23
2022-11-24T14:27:26.599Z,87.50
2022-11-24T14:29:56.332Z,87.52
2022-11-24T14:32:25.140Z,86.96
2022-11-24T14:34:54.161Z,87.25
2022-11-24T14:37:22.240Z,87.52
2022-11-24T14:39:50.214Z,86.89
2022-11-24T14:42:20.259Z,87.23
2022-11-24T14:44:52.869Z,87.56
2022-11-24T14:47:31.297Z,87.22
2022-11-24T14:50:09.850Z,87.26
2022-11-24T14:52:46.020Z,87.27
2022-11-24T14:55:26.157Z,86.88
2022-11-24T14:57:53.684Z,86.70
2022-11-24T15:00:28.567Z,87.06
2022-11-24T15:03:16.556Z,87.19
2022-11-24T15:05:54.608Z,87.42
2022-11-24T15:08:24.459Z,87.34
2022-11-24T15:11:02.242Z,87.28
2022-11-24T15:13:38.929Z,87.30
2022-11-24T15:16:16.181Z,87.05
2022-11-24T15:18:47.391Z,86.76
2022-11-24T15:21:19.306Z,87.01
2022-11-24T15:24:05.155Z,87.23
2022-11-24T15:26:38.263Z,87.14
2022-11-24T15:29:09.565Z,87.11
2022-11-24T15:31:37.477Z,87.26
2022-11-24T15:34:06.269Z,86.95
2022-11-24T15:36:34.319Z,86.77
2022-11-24T15:39:02.053Z,86.79
2022-11-24T15:41:31.113Z,86.70
2022-11-24T15:43:59.536Z,86.97
2022-11-24T15:46:27.938Z,86.66
2022-11-24T15:48:55.536Z,86.69
2022-11-24T15:51:26.231Z,86.83
2022-11-24T15:54:00.250Z,86.85
2022-11-24T15:56:32.222Z,86.82
2022-11-24T15:58:59.856Z,86.79
2022-11-24T16:01:31.216Z,86.63
2022-11-24T16:04:01.154Z,86.71
2022-11-24T16:06:31.046Z,86.76
2022-11-24T16:09:01.519Z,86.70
2022-11-24T16:11:34.953Z,86.55
2022-11-24T16:14:04.418Z,86.52
2022-11-24T16:16:31.935Z,87.21
2022-11-24T16:18:59.930Z,86.77
2022-11-24T16:21:27.302Z,86.85
2022-11-24T16:23:56.292Z,86.88
2022-11-24T16:26:23.607Z,87.01
2022-11-24T16:28:50.887Z,87.20
2022-11-24T16:31:20.423Z,87.01
2022-11-24T16:33:49.363Z,87.23
2022-11-24T16:36:18.080Z,87.08
2022-11-24T16:38:49.325Z,87.28
2022-11-24T16:41:21.795Z,87.06
2022-11-24T16:43:49.051Z,87.06
2022-11-24T16:46:18.788Z,87.02
2022-11-24T16:48:46.211Z,87.09
2022-11-24T16:51:14.447Z,87.04
2022-11-24T16:53:43.143Z,87.29
2022-11-24T16:56:15.937Z,87.10
2022-11-24T16:58:46.575Z,87.21
2022-11-24T17:01:14.443Z,87.09
2022-11-24T17:03:42.146Z,87.03
2022-11-24T17:06:11.518Z,86.94
2022-11-24T17:08:41.546Z,87.02
2022-11-24T17:11:10.408Z,86.95
2022-11-24T17:13:39.061Z,87.00
2022-11-24T17:16:10.014Z,87.02
2022-11-24T17:18:39.012Z,86.94
2022-11-24T17:21:13.019Z,86.83
2022-11-24T17:23:40.798Z,86.98
2022-11-24T17:26:11.644Z,86.93
2022-11-24T17:28:39.327Z,87.05
2022-11-24T17:31:08.625Z,87.16
2022-11-24T17:33:39.001Z,86.92
2022-11-24T17:36:08.769Z,86.89
2022-11-24T17:38:38.530Z,87.02
2022-11-24T17:41:06.059Z,86.87
2022-11-24T17:43:33.555Z,86.67
2022-11-24T17:46:05.412Z,86.98
2022-11-24T17:48:36.714Z,87.07
2022-11-24T17:51:05.774Z,87.03
2022-11-24T17:53:33.042Z,87.10
2022-11-24T17:56:01.030Z,87.13
2022-11-24T17:58:28.322Z,86.91
2022-11-24T18:00:56.322Z,87.13
2022-11-24T18:03:31.777Z,86.76
2022-11-24T18:06:05.419Z,86.83
2022-11-24T18:08:33.223Z,87.09
2022-11-24T18:11:04.676Z,86.68
2022-11-24T18:13:55.310Z,86.79
2022-11-24T18:16:20.429Z,87.08
2022-11-24T18:19:07.430Z,87.08
2022-11-24T18:21:37.761Z,87.20
2022-11-24T18:24:10.444Z,87.17
2022-11-24T18:26:41.916Z,87.00
2022-11-24T18:29:09.441Z,87.18
2022-11-24T18:31:37.448Z,87.15
2022-11-24T18:34:06.041Z,87.25
2022-11-24T18:36:35.477Z,87.24
2022-11-24T18:39:07.621Z,87.32
2022-11-24T18:41:36.098Z,87.38
2022-11-24T18:44:08.051Z,87.39
2022-11-24T18:46:35.811Z,87.18
2022-11-24T18:49:03.707Z,87.42
2022-11-24T18:51:30.989Z,87.38
2022-11-24T18:53:58.341Z,87.39
2022-11-24T18:56:27.465Z,87.33
2022-11-24T18:58:56.513Z,87.49
2022-11-24T19:01:25.373Z,87.42
2022-11-24T19:03:54.055Z,87.51
2022-11-24T19:06:24.035Z,87.61
2022-11-24T19:08:53.755Z,87.73
2022-11-24T19:11:23.536Z,87.64
2022-11-24T19:13:52.723Z,87.50
2022-11-24T19:16:20.784Z,87.54
2022-11-24T19:18:54.060Z,87.39
2022-11-24T19:21:22.769Z,87.55
2022-11-24T19:23:50.253Z,87.55
2022-11-24T19:26:19.620Z,87.51
2022-11-24T19:28:48.036Z,87.41
2022-11-24T19:31:19.417Z,87.39
2022-11-24T19:33:50.741Z,87.59
2022-11-24T19:36:21.351Z,87.93
2022-11-24T19:38:50.584Z,87.48
2022-11-24T19:41:22.145Z,87.71
2022-11-24T19:43:55.002Z,87.69
2022-11-24T19:46:27.590Z,87.85
2022-11-24T19:48:57.305Z,87.62
2022-11-24T19:51:26.618Z,87.69
2022-11-24T19:53:56.966Z,87.61
2022-11-24T19:56:30.820Z,87.50
2022-11-24T19:59:00.011Z,87.38
2022-11-24T20:01:36.814Z,87.51
2022-11-24T20:04:08.505Z,87.40
2022-11-24T20:06:40.997Z,87.39
2022-11-24T20:09:18.815Z,87.47
2022-11-24T20:11:51.144Z,87.13
2022-11-24T20:14:23.455Z,87.21
2022-11-24T20:16:57.822Z,87.14
2022-11-24T20:19:30.244Z,86.95
2022-11-24T20:21:58.898Z,87.32
2022-11-24T20:24:30.018Z,86.91
2022-11-24T20:27:02.385Z,86.88
2022-11-24T20:29:35.015Z,86.90
2022-11-24T20:32:05.724Z,86.88
2022-11-24T20:34:33.668Z,86.81
2022-11-24T20:37:01.026Z,86.78
2022-11-24T20:39:28.434Z,86.85
2022-11-24T20:41:56.686Z,86.46
2022-11-24T20:44:26.703Z,86.70
2022-11-24T20:46:55.939Z,86.50
2022-11-24T20:49:25.202Z,86.64
2022-11-24T20:51:54.537Z,86.99
2022-11-24T20:54:22.396Z,87.02
2022-11-24T20:56:49.848Z,86.96
2022-11-24T20:59:19.717Z,86.98
2022-11-24T21:01:48.919Z,86.63
2022-11-24T21:04:18.043Z,86.95
2022-11-24T21:06:47.576Z,87.16
2022-11-24T21:09:15.500Z,87.10
2022-11-24T21:11:43.126Z,87.16
2022-11-24T21:14:10.857Z,86.98
2022-11-24T21:16:40.109Z,86.91
2022-11-24T21:19:10.084Z,87.01
2022-11-24T21:21:37.993Z,87.08
2022-11-24T21:24:11.227Z,87.06
2022-11-24T21:26:40.090Z,86.89
2022-11-24T21:29:08.424Z,87.23
2022-11-24T21:31:37.082Z,87.10
2022-11-24T21:34:07.447Z,86.66
2022-11-24T21:36:38.264Z,87.07
2022-11-24T21:39:12.755Z,86.95
2022-11-24T21:41:42.500Z,86.83
2022-11-24T21:44:11.582Z,87.06
2022-11-24T21:46:44.146Z,86.92
2022-11-24T21:49:16.984Z,86.94
2022-11-24T21:51:45.299Z,86.66
2022-11-24T21:54:15.064Z,86.71
2022-11-24T21:56:43.375Z,86.64
2022-11-24T21:59:10.655Z,87.17
2022-11-24T22:01:38.104Z,86.74
2022-11-24T22:04:05.994Z,87.01
2022-11-24T22:06:33.431Z,86.71
2022-11-24T22:09:01.408Z,86.98
2022-11-24T22:11:30.343Z,86.70
2022-11-24T22:13:57.825Z,86.66
2022-11-24T22:16:25.950Z,86.93
2022-11-24T22:18:53.218Z,86.71
2022-11-24T22:21:30.729Z,86.83
2022-11-24T22:23:58.379Z,86.84
2022-11-24T22:26:26.661Z,86.84
2022-11-24T22:28:56.561Z,86.74
2022-11-24T22:31:25.444Z,86.98
2022-11-24T22:33:54.426Z,86.63
2022-11-24T22:36:25.218Z,86.81
2022-11-24T22:38:54.455Z,86.79
2022-11-24T22:41:22.145Z,86.79
2022-11-24T22:43:49.793Z,86.63
2022-11-24T22:46:19.942Z,86.60
2022-11-24T22:48:48.482Z,86.43
2022-11-24T22:51:17.979Z,86.61
2022-11-24T22:53:47.884Z,86.64
2022-11-24T22:56:16.642Z,86.47
2022-11-24T22:58:44.151Z,86.92
2022-11-24T23:01:14.831Z,86.75
2022-11-24T23:03:45.444Z,87.05
2022-11-24T23:06:15.387Z,86.68
2022-11-24T23:08:44.125Z,86.64
2022-11-24T23:11:14.424Z,86.67
2022-11-24T23:13:42.190Z,86.71
2022-11-24T23:16:11.953Z,86.78
2022-11-24T23:18:39.536Z,86.97
2022-11-24T23:21:11.733Z,87.12
2022-11-24T23:23:40.175Z,87.00
2022-11-24T23:26:11.756Z,87.26
2022-11-24T23:28:40.759Z,87.24
2022-11-24T23:31:09.995Z,86.99
2022-11-24T23:33:38.297Z,86.97
2022-11-24T23:36:10.397Z,87.33
2022-11-24T23:38:41.121Z,87.15
2022-11-24T23:41:10.965Z,87.24
2022-11-24T23:43:40.893Z,87.63
2022-11-24T23:46:10.423Z,87.23
2022-11-24T23:48:38.653Z,87.63
2022-11-24T23:51:10.898Z,87.65
2022-11-24T23:53:38.876Z,87.88
2022-11-24T23:56:07.384Z,87.72
2022-11-24T23:58:34.924Z,87.67
